sensor_id;sensor_type;location;lat;lon;timestamp;P1;durP1;ratioP1;P2;durP2;ratioP2
49688;SDS011;70518;51.400;7.428;2023-07-08T00:00:43;8.38;;;3.40;;
49688;SDS011;70518;51.400;7.428;2023-07-08T00:03:10;5.75;;;3.33;;
49688;SDS011;70518;51.400;7.428;2023-07-08T00:05:36;6.07;;;3.45;;
49688;SDS011;70518;51.400;7.428;2023-07-08T00:08:01;8.50;;;4.25;;
49688;SDS011;70518;51.400;7.428;2023-07-08T00:10:28;9.05;;;3.88;;
49688;SDS011;70518;51.400;7.428;2023-07-08T00:12:55;32.05;;;13.45;;
49688;SDS011;70518;51.400;7.428;2023-07-08T00:15:23;55.47;;;23.27;;
49688;SDS011;70518;51.400;7.428;2023-07-08T00:17:51;51.58;;;22.10;;
49688;SDS011;70518;51.400;7.428;2023-07-08T00:20:17;43.33;;;21.33;;
49688;SDS011;70518;51.400;7.428;2023-07-08T00:22:48;49.08;;;19.65;;
49688;SDS011;70518;51.400;7.428;2023-07-08T00:25:15;32.92;;;14.95;;
49688;SDS011;70518;51.400;7.428;2023-07-08T00:27:44;27.20;;;11.95;;
49688;SDS011;70518;51.400;7.428;2023-07-08T00:32:45;15.00;;;8.23;;
49688;SDS011;70518;51.400;7.428;2023-07-08T00:35:11;14.88;;;6.72;;
49688;SDS011;70518;51.400;7.428;2023-07-08T00:37:36;11.52;;;5.43;;
49688;SDS011;70518;51.400;7.428;2023-07-08T00:40:08;8.35;;;4.05;;
49688;SDS011;70518;51.400;7.428;2023-07-08T00:42:42;8.60;;;3.35;;
49688;SDS011;70518;51.400;7.428;2023-07-08T00:48:00;8.20;;;3.40;;
49688;SDS011;70518;51.400;7.428;2023-07-08T00:50:34;6.75;;;2.60;;
49688;SDS011;70518;51.400;7.428;2023-07-08T00:53:16;5.05;;;2.22;;
49688;SDS011;70518;51.400;7.428;2023-07-08T00:55:48;5.65;;;2.08;;
49688;SDS011;70518;51.400;7.428;2023-07-08T00:58:15;4.18;;;2.00;;
49688;SDS011;70518;51.400;7.428;2023-07-08T01:00:43;5.68;;;2.17;;
49688;SDS011;70518;51.400;7.428;2023-07-08T01:03:09;2.85;;;1.65;;
49688;SDS011;70518;51.400;7.428;2023-07-08T01:05:34;4.93;;;1.83;;
49688;SDS011;70518;51.400;7.428;2023-07-08T01:08:03;3.83;;;2.00;;
49688;SDS011;70518;51.400;7.428;2023-07-08T01:10:37;4.32;;;1.63;;
49688;SDS011;70518;51.400;7.428;2023-07-08T01:13:08;3.10;;;1.52;;
49688;SDS011;70518;51.400;7.428;2023-07-08T01:15:37;3.90;;;2.15;;
49688;SDS011;70518;51.400;7.428;2023-07-08T01:18:06;3.05;;;1.33;;
49688;SDS011;70518;51.400;7.428;2023-07-08T01:20:33;3.20;;;1.98;;
49688;SDS011;70518;51.400;7.428;2023-07-08T01:22:58;4.65;;;1.42;;
49688;SDS011;70518;51.400;7.428;2023-07-08T01:25:24;3.60;;;1.48;;
49688;SDS011;70518;51.400;7.428;2023-07-08T01:27:52;2.67;;;1.50;;
49688;SDS011;70518;51.400;7.428;2023-07-08T01:30:19;2.60;;;1.33;;
49688;SDS011;70518;51.400;7.428;2023-07-08T01:32:45;4.53;;;1.98;;
49688;SDS011;70518;51.400;7.428;2023-07-08T01:35:14;3.58;;;1.25;;
49688;SDS011;70518;51.400;7.428;2023-07-08T01:37:53;6.43;;;1.52;;
49688;SDS011;70518;51.400;7.428;2023-07-08T01:40:27;3.40;;;1.27;;
49688;SDS011;70518;51.400;7.428;2023-07-08T01:42:57;2.55;;;1.50;;
49688;SDS011;70518;51.400;7.428;2023-07-08T01:45:24;2.30;;;1.40;;
49688;SDS011;70518;51.400;7.428;2023-07-08T01:47:53;3.97;;;1.60;;
49688;SDS011;70518;51.400;7.428;2023-07-08T01:50:21;2.47;;;1.50;;
49688;SDS011;70518;51.400;7.428;2023-07-08T01:52:48;4.50;;;1.65;;
49688;SDS011;70518;51.400;7.428;2023-07-08T01:55:15;2.92;;;1.30;;
49688;SDS011;70518;51.400;7.428;2023-07-08T01:57:46;4.35;;;1.40;;
49688;SDS011;70518;51.400;7.428;2023-07-08T02:00:11;2.47;;;1.30;;
49688;SDS011;70518;51.400;7.428;2023-07-08T02:02:37;2.65;;;1.83;;
49688;SDS011;70518;51.400;7.428;2023-07-08T02:05:03;3.85;;;1.52;;
49688;SDS011;70518;51.400;7.428;2023-07-08T02:07:28;2.47;;;1.13;;
49688;SDS011;70518;51.400;7.428;2023-07-08T02:09:53;2.92;;;1.15;;
49688;SDS011;70518;51.400;7.428;2023-07-08T02:12:19;2.30;;;1.17;;
49688;SDS011;70518;51.400;7.428;2023-07-08T02:14:44;1.80;;;1.20;;
49688;SDS011;70518;51.400;7.428;2023-07-08T02:17:09;2.85;;;1.20;;
49688;SDS011;70518;51.400;7.428;2023-07-08T02:19:34;3.35;;;1.35;;
49688;SDS011;70518;51.400;7.428;2023-07-08T02:22:00;2.28;;;1.10;;
49688;SDS011;70518;51.400;7.428;2023-07-08T02:24:25;2.35;;;1.30;;
49688;SDS011;70518;51.400;7.428;2023-07-08T02:26:50;3.55;;;1.10;;
49688;SDS011;70518;51.400;7.428;2023-07-08T02:29:16;2.20;;;1.13;;
49688;SDS011;70518;51.400;7.428;2023-07-08T02:31:41;2.58;;;1.30;;
49688;SDS011;70518;51.400;7.428;2023-07-08T02:34:06;2.47;;;1.30;;
49688;SDS011;70518;51.400;7.428;2023-07-08T02:36:33;2.38;;;1.40;;
49688;SDS011;70518;51.400;7.428;2023-07-08T02:38:59;3.60;;;1.63;;
49688;SDS011;70518;51.400;7.428;2023-07-08T02:41:24;2.05;;;1.02;;
49688;SDS011;70518;51.400;7.428;2023-07-08T02:43:50;2.33;;;1.02;;
49688;SDS011;70518;51.400;7.428;2023-07-08T02:46:15;2.85;;;1.48;;
49688;SDS011;70518;51.400;7.428;2023-07-08T02:48:40;1.55;;;0.98;;
49688;SDS011;70518;51.400;7.428;2023-07-08T02:51:06;2.15;;;1.00;;
49688;SDS011;70518;51.400;7.428;2023-07-08T02:53:33;2.28;;;1.10;;
49688;SDS011;70518;51.400;7.428;2023-07-08T02:55:58;3.47;;;1.02;;
49688;SDS011;70518;51.400;7.428;2023-07-08T02:58:24;3.33;;;1.10;;
49688;SDS011;70518;51.400;7.428;2023-07-08T03:00:53;2.28;;;1.05;;
49688;SDS011;70518;51.400;7.428;2023-07-08T03:03:19;1.20;;;0.90;;
49688;SDS011;70518;51.400;7.428;2023-07-08T03:05:52;2.92;;;1.15;;
49688;SDS011;70518;51.400;7.428;2023-07-08T03:08:19;2.15;;;0.90;;
49688;SDS011;70518;51.400;7.428;2023-07-08T03:10:47;1.70;;;0.90;;
49688;SDS011;70518;51.400;7.428;2023-07-08T03:13:13;1.60;;;0.80;;
49688;SDS011;70518;51.400;7.428;2023-07-08T03:15:38;2.92;;;1.20;;
49688;SDS011;70518;51.400;7.428;2023-07-08T03:18:03;2.90;;;0.85;;
49688;SDS011;70518;51.400;7.428;2023-07-08T03:20:30;2.28;;;0.90;;
49688;SDS011;70518;51.400;7.428;2023-07-08T03:22:57;1.45;;;1.00;;
49688;SDS011;70518;51.400;7.428;2023-07-08T03:25:22;3.72;;;1.10;;
49688;SDS011;70518;51.400;7.428;2023-07-08T03:27:47;1.50;;;1.10;;
49688;SDS011;70518;51.400;7.428;2023-07-08T03:30:13;2.17;;;0.90;;
49688;SDS011;70518;51.400;7.428;2023-07-08T03:32:38;3.75;;;1.05;;
49688;SDS011;70518;51.400;7.428;2023-07-08T03:35:03;2.63;;;1.00;;
49688;SDS011;70518;51.400;7.428;2023-07-08T03:37:29;1.58;;;0.98;;
49688;SDS011;70518;51.400;7.428;2023-07-08T03:39:54;2.95;;;1.00;;
49688;SDS011;70518;51.400;7.428;2023-07-08T03:42:19;2.65;;;0.98;;
49688;SDS011;70518;51.400;7.428;2023-07-08T03:44:45;2.58;;;1.10;;
49688;SDS011;70518;51.400;7.428;2023-07-08T03:47:10;1.88;;;1.10;;
49688;SDS011;70518;51.400;7.428;2023-07-08T03:49:35;1.45;;;1.00;;
49688;SDS011;70518;51.400;7.428;2023-07-08T03:52:00;3.10;;;0.98;;
49688;SDS011;70518;51.400;7.428;2023-07-08T03:54:26;2.17;;;1.00;;
49688;SDS011;70518;51.400;7.428;2023-07-08T03:56:51;3.85;;;1.10;;
49688;SDS011;70518;51.400;7.428;2023-07-08T03:59:17;2.95;;;1.10;;
49688;SDS011;70518;51.400;7.428;2023-07-08T04:01:43;2.92;;;1.00;;
49688;SDS011;70518;51.400;7.428;2023-07-08T04:04:09;3.72;;;1.00;;
49688;SDS011;70518;51.400;7.428;2023-07-08T04:06:37;3.13;;;1.05;;
49688;SDS011;70518;51.400;7.428;2023-07-08T04:09:03;3.33;;;1.20;;
49688;SDS011;70518;51.400;7.428;2023-07-08T04:11:28;2.50;;;1.10;;
49688;SDS011;70518;51.400;7.428;2023-07-08T04:13:54;1.83;;;1.08;;
49688;SDS011;70518;51.400;7.428;2023-07-08T04:16:27;2.38;;;0.93;;
49688;SDS011;70518;51.400;7.428;2023-07-08T04:18:55;2.50;;;1.27;;
49688;SDS011;70518;51.400;7.428;2023-07-08T04:21:21;1.95;;;1.23;;
49688;SDS011;70518;51.400;7.428;2023-07-08T04:23:49;2.78;;;1.10;;
49688;SDS011;70518;51.400;7.428;2023-07-08T04:26:15;4.20;;;1.42;;
49688;SDS011;70518;51.400;7.428;2023-07-08T04:28:41;1.40;;;0.93;;
49688;SDS011;70518;51.400;7.428;2023-07-08T04:31:07;2.08;;;1.20;;
49688;SDS011;70518;51.400;7.428;2023-07-08T04:33:32;2.53;;;1.38;;
49688;SDS011;70518;51.400;7.428;2023-07-08T04:35:57;4.00;;;1.27;;
49688;SDS011;70518;51.400;7.428;2023-07-08T04:38:24;2.20;;;1.35;;
49688;SDS011;70518;51.400;7.428;2023-07-08T04:40:50;2.83;;;0.98;;
49688;SDS011;70518;51.400;7.428;2023-07-08T04:43:17;3.60;;;1.20;;
49688;SDS011;70518;51.400;7.428;2023-07-08T04:45:43;4.18;;;1.45;;
49688;SDS011;70518;51.400;7.428;2023-07-08T04:48:14;2.45;;;1.25;;
49688;SDS011;70518;51.400;7.428;2023-07-08T04:50:43;2.60;;;1.23;;
49688;SDS011;70518;51.400;7.428;2023-07-08T04:53:10;1.65;;;1.05;;
49688;SDS011;70518;51.400;7.428;2023-07-08T04:55:41;2.00;;;1.00;;
49688;SDS011;70518;51.400;7.428;2023-07-08T04:58:13;1.85;;;1.10;;
49688;SDS011;70518;51.400;7.428;2023-07-08T05:00:38;2.35;;;1.23;;
49688;SDS011;70518;51.400;7.428;2023-07-08T05:03:03;2.72;;;1.30;;
49688;SDS011;70518;51.400;7.428;2023-07-08T05:05:29;2.78;;;1.00;;
49688;SDS011;70518;51.400;7.428;2023-07-08T05:07:55;2.15;;;1.40;;
49688;SDS011;70518;51.400;7.428;2023-07-08T05:10:20;2.78;;;1.38;;
49688;SDS011;70518;51.400;7.428;2023-07-08T05:12:46;2.22;;;1.30;;
49688;SDS011;70518;51.400;7.428;2023-07-08T05:15:12;3.10;;;1.40;;
49688;SDS011;70518;51.400;7.428;2023-07-08T05:17:39;2.03;;;1.00;;
49688;SDS011;70518;51.400;7.428;2023-07-08T05:20:05;2.85;;;1.48;;
49688;SDS011;70518;51.400;7.428;2023-07-08T05:22:32;2.22;;;1.20;;
49688;SDS011;70518;51.400;7.428;2023-07-08T05:24:58;3.10;;;1.23;;
49688;SDS011;70518;51.400;7.428;2023-07-08T05:27:23;3.47;;;1.70;;
49688;SDS011;70518;51.400;7.428;2023-07-08T05:29:49;2.67;;;1.10;;
49688;SDS011;70518;51.400;7.428;2023-07-08T05:32:15;2.53;;;1.00;;
49688;SDS011;70518;51.400;7.428;2023-07-08T05:34:41;3.60;;;1.20;;
49688;SDS011;70518;51.400;7.428;2023-07-08T05:37:06;2.25;;;1.05;;
49688;SDS011;70518;51.400;7.428;2023-07-08T05:39:31;2.95;;;1.35;;
49688;SDS011;70518;51.400;7.428;2023-07-08T05:41:57;2.05;;;1.20;;
49688;SDS011;70518;51.400;7.428;2023-07-08T05:44:23;2.72;;;1.30;;
49688;SDS011;70518;51.400;7.428;2023-07-08T05:46:49;2.22;;;1.25;;
49688;SDS011;70518;51.400;7.428;2023-07-08T05:49:15;2.92;;;1.52;;
49688;SDS011;70518;51.400;7.428;2023-07-08T05:51:40;3.30;;;1.35;;
49688;SDS011;70518;51.400;7.428;2023-07-08T05:54:06;2.65;;;1.70;;
49688;SDS011;70518;51.400;7.428;2023-07-08T05:56:31;3.17;;;1.88;;
49688;SDS011;70518;51.400;7.428;2023-07-08T05:58:57;4.72;;;1.80;;
49688;SDS011;70518;51.400;7.428;2023-07-08T06:01:22;3.72;;;1.98;;
49688;SDS011;70518;51.400;7.428;2023-07-08T06:03:48;3.53;;;1.85;;
49688;SDS011;70518;51.400;7.428;2023-07-08T06:06:13;4.50;;;1.90;;
49688;SDS011;70518;51.400;7.428;2023-07-08T06:08:38;3.63;;;1.80;;
49688;SDS011;70518;51.400;7.428;2023-07-08T06:11:04;4.93;;;1.80;;
49688;SDS011;70518;51.400;7.428;2023-07-08T06:13:29;4.97;;;1.77;;
49688;SDS011;70518;51.400;7.428;2023-07-08T06:15:55;2.28;;;1.40;;
49688;SDS011;70518;51.400;7.428;2023-07-08T06:18:20;3.55;;;1.77;;
49688;SDS011;70518;51.400;7.428;2023-07-08T06:20:55;2.17;;;1.20;;
49688;SDS011;70518;51.400;7.428;2023-07-08T06:23:22;2.42;;;1.30;;
49688;SDS011;70518;51.400;7.428;2023-07-08T06:25:48;2.88;;;1.55;;
49688;SDS011;70518;51.400;7.428;2023-07-08T06:28:14;2.45;;;1.45;;
49688;SDS011;70518;51.400;7.428;2023-07-08T06:30:39;3.65;;;2.08;;
49688;SDS011;70518;51.400;7.428;2023-07-08T06:33:04;3.17;;;1.20;;
49688;SDS011;70518;51.400;7.428;2023-07-08T06:35:30;5.43;;;1.58;;
49688;SDS011;70518;51.400;7.428;2023-07-08T06:37:55;3.30;;;1.50;;
49688;SDS011;70518;51.400;7.428;2023-07-08T06:40:20;2.88;;;1.38;;
49688;SDS011;70518;51.400;7.428;2023-07-08T06:42:46;3.58;;;1.60;;
49688;SDS011;70518;51.400;7.428;2023-07-08T06:45:11;3.67;;;1.50;;
49688;SDS011;70518;51.400;7.428;2023-07-08T06:47:37;2.05;;;1.40;;
49688;SDS011;70518;51.400;7.428;2023-07-08T06:50:02;3.42;;;1.48;;
49688;SDS011;70518;51.400;7.428;2023-07-08T06:52:28;3.33;;;1.55;;
49688;SDS011;70518;51.400;7.428;2023-07-08T06:54:59;3.60;;;1.65;;
49688;SDS011;70518;51.400;7.428;2023-07-08T06:57:25;3.60;;;1.60;;
49688;SDS011;70518;51.400;7.428;2023-07-08T06:59:51;3.67;;;1.95;;
49688;SDS011;70518;51.400;7.428;2023-07-08T07:02:16;3.45;;;1.55;;
49688;SDS011;70518;51.400;7.428;2023-07-08T07:04:42;4.15;;;2.08;;
49688;SDS011;70518;51.400;7.428;2023-07-08T07:07:07;4.20;;;1.90;;
49688;SDS011;70518;51.400;7.428;2023-07-08T07:09:32;4.68;;;2.05;;
49688;SDS011;70518;51.400;7.428;2023-07-08T07:11:58;3.53;;;1.58;;
49688;SDS011;70518;51.400;7.428;2023-07-08T07:14:23;6.00;;;2.10;;
49688;SDS011;70518;51.400;7.428;2023-07-08T07:16:48;8.13;;;2.03;;
49688;SDS011;70518;51.400;7.428;2023-07-08T07:19:14;4.60;;;1.73;;
49688;SDS011;70518;51.400;7.428;2023-07-08T07:21:39;2.80;;;1.67;;
49688;SDS011;70518;51.400;7.428;2023-07-08T07:24:05;2.47;;;1.80;;
49688;SDS011;70518;51.400;7.428;2023-07-08T07:26:32;3.88;;;1.92;;
49688;SDS011;70518;51.400;7.428;2023-07-08T07:28:57;4.63;;;2.22;;
49688;SDS011;70518;51.400;7.428;2023-07-08T07:31:22;3.08;;;2.38;;
49688;SDS011;70518;51.400;7.428;2023-07-08T07:33:48;4.88;;;2.58;;
49688;SDS011;70518;51.400;7.428;2023-07-08T07:36:13;2.80;;;1.58;;
49688;SDS011;70518;51.400;7.428;2023-07-08T07:38:38;2.92;;;1.70;;
49688;SDS011;70518;51.400;7.428;2023-07-08T07:41:04;4.30;;;2.33;;
49688;SDS011;70518;51.400;7.428;2023-07-08T07:43:31;7.15;;;2.75;;
49688;SDS011;70518;51.400;7.428;2023-07-08T07:45:58;3.15;;;2.35;;
49688;SDS011;70518;51.400;7.428;2023-07-08T07:48:23;4.75;;;2.35;;
49688;SDS011;70518;51.400;7.428;2023-07-08T07:50:50;4.53;;;2.28;;
49688;SDS011;70518;51.400;7.428;2023-07-08T07:53:16;7.15;;;2.65;;
49688;SDS011;70518;51.400;7.428;2023-07-08T07:55:41;5.18;;;2.15;;
49688;SDS011;70518;51.400;7.428;2023-07-08T07:58:07;5.97;;;2.22;;
49688;SDS011;70518;51.400;7.428;2023-07-08T08:00:33;3.65;;;2.03;;
49688;SDS011;70518;51.400;7.428;2023-07-08T08:02:59;3.92;;;2.35;;
49688;SDS011;70518;51.400;7.428;2023-07-08T08:05:24;4.28;;;2.78;;
49688;SDS011;70518;51.400;7.428;2023-07-08T08:07:49;5.40;;;2.47;;
49688;SDS011;70518;51.400;7.428;2023-07-08T08:10:15;5.25;;;2.40;;
49688;SDS011;70518;51.400;7.428;2023-07-08T08:12:40;2.92;;;2.35;;
49688;SDS011;70518;51.400;7.428;2023-07-08T08:15:06;4.82;;;2.28;;
49688;SDS011;70518;51.400;7.428;2023-07-08T08:17:32;4.45;;;2.22;;
49688;SDS011;70518;51.400;7.428;2023-07-08T08:19:57;3.50;;;2.38;;
49688;SDS011;70518;51.400;7.428;2023-07-08T08:22:22;3.55;;;1.95;;
49688;SDS011;70518;51.400;7.428;2023-07-08T08:24:48;6.20;;;2.70;;
49688;SDS011;70518;51.400;7.428;2023-07-08T08:27:14;5.15;;;2.80;;
49688;SDS011;70518;51.400;7.428;2023-07-08T08:29:39;5.85;;;3.10;;
49688;SDS011;70518;51.400;7.428;2023-07-08T08:32:05;4.25;;;3.25;;
49688;SDS011;70518;51.400;7.428;2023-07-08T08:34:30;3.78;;;2.50;;
49688;SDS011;70518;51.400;7.428;2023-07-08T08:36:56;4.88;;;3.03;;
49688;SDS011;70518;51.400;7.428;2023-07-08T08:39:22;5.90;;;3.20;;
49688;SDS011;70518;51.400;7.428;2023-07-08T08:41:47;3.75;;;2.33;;
49688;SDS011;70518;51.400;7.428;2023-07-08T08:44:18;4.43;;;2.60;;
49688;SDS011;70518;51.400;7.428;2023-07-08T08:46:54;5.68;;;2.72;;
49688;SDS011;70518;51.400;7.428;2023-07-08T08:49:37;2.92;;;2.30;;
49688;SDS011;70518;51.400;7.428;2023-07-08T08:52:08;5.30;;;3.38;;
49688;SDS011;70518;51.400;7.428;2023-07-08T08:54:33;5.72;;;3.35;;
49688;SDS011;70518;51.400;7.428;2023-07-08T08:57:07;6.22;;;2.60;;
49688;SDS011;70518;51.400;7.428;2023-07-08T08:59:42;4.15;;;2.55;;
49688;SDS011;70518;51.400;7.428;2023-07-08T09:02:21;4.68;;;2.45;;
49688;SDS011;70518;51.400;7.428;2023-07-08T09:04:53;4.97;;;2.90;;
49688;SDS011;70518;51.400;7.428;2023-07-08T09:07:19;4.53;;;2.70;;
49688;SDS011;70518;51.400;7.428;2023-07-08T09:12:18;6.03;;;2.67;;
49688;SDS011;70518;51.400;7.428;2023-07-08T09:14:49;3.67;;;2.78;;
49688;SDS011;70518;51.400;7.428;2023-07-08T09:23:01;4.13;;;2.65;;
49688;SDS011;70518;51.400;7.428;2023-07-08T09:25:43;5.05;;;2.78;;
49688;SDS011;70518;51.400;7.428;2023-07-08T09:28:14;4.20;;;2.58;;
49688;SDS011;70518;51.400;7.428;2023-07-08T09:30:39;3.60;;;2.13;;
49688;SDS011;70518;51.400;7.428;2023-07-08T09:33:06;5.63;;;2.85;;
49688;SDS011;70518;51.400;7.428;2023-07-08T09:35:46;3.65;;;2.63;;
49688;SDS011;70518;51.400;7.428;2023-07-08T09:38:14;4.13;;;2.38;;
49688;SDS011;70518;51.400;7.428;2023-07-08T09:40:46;10.23;;;2.20;;
49688;SDS011;70518;51.400;7.428;2023-07-08T09:43:27;5.30;;;2.50;;
49688;SDS011;70518;51.400;7.428;2023-07-08T09:46:01;4.80;;;2.35;;
49688;SDS011;70518;51.400;7.428;2023-07-08T09:48:28;3.25;;;1.85;;
49688;SDS011;70518;51.400;7.428;2023-07-08T09:50:56;4.22;;;2.15;;
49688;SDS011;70518;51.400;7.428;2023-07-08T09:53:23;3.25;;;2.63;;
49688;SDS011;70518;51.400;7.428;2023-07-08T09:55:49;3.75;;;2.35;;
49688;SDS011;70518;51.400;7.428;2023-07-08T09:58:27;3.35;;;2.35;;
49688;SDS011;70518;51.400;7.428;2023-07-08T10:00:57;3.80;;;2.75;;
49688;SDS011;70518;51.400;7.428;2023-07-08T10:03:26;3.15;;;2.20;;
49688;SDS011;70518;51.400;7.428;2023-07-08T10:05:56;4.95;;;2.30;;
49688;SDS011;70518;51.400;7.428;2023-07-08T10:08:27;3.97;;;2.05;;
49688;SDS011;70518;51.400;7.428;2023-07-08T10:11:03;3.30;;;1.90;;
49688;SDS011;70518;51.400;7.428;2023-07-08T10:13:52;2.83;;;1.65;;
49688;SDS011;70518;51.400;7.428;2023-07-08T10:16:25;2.83;;;1.85;;
49688;SDS011;70518;51.400;7.428;2023-07-08T10:18:53;3.97;;;2.42;;
49688;SDS011;70518;51.400;7.428;2023-07-08T10:29:28;4.38;;;1.40;;
49688;SDS011;70518;51.400;7.428;2023-07-08T10:32:17;3.67;;;1.73;;
49688;SDS011;70518;51.400;7.428;2023-07-08T10:35:35;2.47;;;1.60;;
49688;SDS011;70518;51.400;7.428;2023-07-08T10:37:49;3.33;;;1.85;;
49688;SDS011;70518;51.400;7.428;2023-07-08T10:40:34;3.60;;;1.65;;
49688;SDS011;70518;51.400;7.428;2023-07-08T10:43:24;2.92;;;1.45;;
49688;SDS011;70518;51.400;7.428;2023-07-08T10:49:00;3.35;;;1.50;;
49688;SDS011;70518;51.400;7.428;2023-07-08T10:51:51;2.58;;;1.35;;
49688;SDS011;70518;51.400;7.428;2023-07-08T10:54:48;3.05;;;1.70;;
49688;SDS011;70518;51.400;7.428;2023-07-08T10:57:25;2.80;;;1.30;;
49688;SDS011;70518;51.400;7.428;2023-07-08T11:00:00;4.30;;;1.88;;
49688;SDS011;70518;51.400;7.428;2023-07-08T11:08:13;3.55;;;1.50;;
49688;SDS011;70518;51.400;7.428;2023-07-08T11:11:03;2.55;;;1.60;;
49688;SDS011;70518;51.400;7.428;2023-07-08T11:13:34;3.50;;;1.95;;
49688;SDS011;70518;51.400;7.428;2023-07-08T11:26:42;3.97;;;1.77;;
49688;SDS011;70518;51.400;7.428;2023-07-08T11:29:16;2.28;;;1.40;;
49688;SDS011;70518;51.400;7.428;2023-07-08T11:31:45;2.60;;;1.73;;
49688;SDS011;70518;51.400;7.428;2023-07-08T11:34:11;2.03;;;1.15;;
49688;SDS011;70518;51.400;7.428;2023-07-08T11:36:40;2.72;;;1.38;;
49688;SDS011;70518;51.400;7.428;2023-07-08T11:39:25;4.00;;;1.55;;
49688;SDS011;70518;51.400;7.428;2023-07-08T11:42:13;3.13;;;1.42;;
49688;SDS011;70518;51.400;7.428;2023-07-08T11:44:51;3.05;;;1.30;;
49688;SDS011;70518;51.400;7.428;2023-07-08T11:47:21;4.85;;;1.98;;
49688;SDS011;70518;51.400;7.428;2023-07-08T11:49:58;2.88;;;1.40;;
49688;SDS011;70518;51.400;7.428;2023-07-08T11:52:23;2.92;;;1.45;;
49688;SDS011;70518;51.400;7.428;2023-07-08T11:54:54;1.88;;;1.10;;
49688;SDS011;70518;51.400;7.428;2023-07-08T11:57:29;3.33;;;1.73;;
49688;SDS011;70518;51.400;7.428;2023-07-08T12:00:14;2.53;;;1.20;;
49688;SDS011;70518;51.400;7.428;2023-07-08T12:02:54;2.67;;;1.45;;
49688;SDS011;70518;51.400;7.428;2023-07-08T12:05:55;2.58;;;1.45;;
49688;SDS011;70518;51.400;7.428;2023-07-08T12:08:14;4.05;;;1.52;;
49688;SDS011;70518;51.400;7.428;2023-07-08T12:10:42;4.95;;;1.80;;
49688;SDS011;70518;51.400;7.428;2023-07-08T12:13:14;2.60;;;1.42;;
49688;SDS011;70518;51.400;7.428;2023-07-08T12:15:42;4.43;;;1.38;;
49688;SDS011;70518;51.400;7.428;2023-07-08T12:20:41;4.13;;;1.40;;
49688;SDS011;70518;51.400;7.428;2023-07-08T12:23:13;2.33;;;1.67;;
49688;SDS011;70518;51.400;7.428;2023-07-08T12:25:47;2.97;;;1.50;;
49688;SDS011;70518;51.400;7.428;2023-07-08T12:28:13;4.38;;;1.65;;
49688;SDS011;70518;51.400;7.428;2023-07-08T12:30:40;5.03;;;2.10;;
49688;SDS011;70518;51.400;7.428;2023-07-08T12:33:11;3.30;;;1.77;;
49688;SDS011;70518;51.400;7.428;2023-07-08T12:35:38;3.83;;;1.23;;
49688;SDS011;70518;51.400;7.428;2023-07-08T12:38:19;2.78;;;1.33;;
49688;SDS011;70518;51.400;7.428;2023-07-08T12:40:52;3.83;;;1.40;;
49688;SDS011;70518;51.400;7.428;2023-07-08T12:43:18;2.97;;;1.92;;
49688;SDS011;70518;51.400;7.428;2023-07-08T12:45:43;4.15;;;1.67;;
49688;SDS011;70518;51.400;7.428;2023-07-08T12:48:09;4.38;;;1.65;;
49688;SDS011;70518;51.400;7.428;2023-07-08T12:50:35;3.72;;;1.73;;
49688;SDS011;70518;51.400;7.428;2023-07-08T12:53:00;2.65;;;1.65;;
49688;SDS011;70518;51.400;7.428;2023-07-08T12:55:29;5.30;;;1.65;;
49688;SDS011;70518;51.400;7.428;2023-07-08T12:57:55;2.80;;;1.60;;
49688;SDS011;70518;51.400;7.428;2023-07-08T13:02:56;3.47;;;1.70;;
49688;SDS011;70518;51.400;7.428;2023-07-08T13:05:31;3.63;;;1.35;;
49688;SDS011;70518;51.400;7.428;2023-07-08T13:07:56;2.42;;;1.70;;
49688;SDS011;70518;51.400;7.428;2023-07-08T13:10:24;2.70;;;1.52;;
49688;SDS011;70518;51.400;7.428;2023-07-08T13:12:54;2.67;;;1.60;;
49688;SDS011;70518;51.400;7.428;2023-07-08T13:15:24;3.33;;;1.55;;
49688;SDS011;70518;51.400;7.428;2023-07-08T13:17:55;2.08;;;1.58;;
49688;SDS011;70518;51.400;7.428;2023-07-08T13:20:21;3.13;;;1.30;;
49688;SDS011;70518;51.400;7.428;2023-07-08T13:22:50;3.15;;;1.73;;
49688;SDS011;70518;51.400;7.428;2023-07-08T13:25:19;5.18;;;1.65;;
49688;SDS011;70518;51.400;7.428;2023-07-08T13:30:48;2.63;;;1.30;;
49688;SDS011;70518;51.400;7.428;2023-07-08T13:33:16;3.20;;;1.50;;
49688;SDS011;70518;51.400;7.428;2023-07-08T13:35:42;2.60;;;1.33;;
49688;SDS011;70518;51.400;7.428;2023-07-08T13:38:12;3.17;;;1.40;;
49688;SDS011;70518;51.400;7.428;2023-07-08T13:40:42;2.78;;;1.40;;
49688;SDS011;70518;51.400;7.428;2023-07-08T13:43:10;3.75;;;1.88;;
49688;SDS011;70518;51.400;7.428;2023-07-08T13:45:36;4.53;;;1.50;;
49688;SDS011;70518;51.400;7.428;2023-07-08T13:48:03;2.92;;;1.30;;
49688;SDS011;70518;51.400;7.428;2023-07-08T13:50:30;2.00;;;1.08;;
49688;SDS011;70518;51.400;7.428;2023-07-08T13:53:12;3.17;;;1.17;;
49688;SDS011;70518;51.400;7.428;2023-07-08T13:55:41;4.15;;;1.45;;
49688;SDS011;70518;51.400;7.428;2023-07-08T13:58:06;4.57;;;1.80;;
49688;SDS011;70518;51.400;7.428;2023-07-08T14:00:35;2.80;;;1.63;;
49688;SDS011;70518;51.400;7.428;2023-07-08T14:03:01;2.45;;;1.23;;
49688;SDS011;70518;51.400;7.428;2023-07-08T14:05:26;2.30;;;1.63;;
49688;SDS011;70518;51.400;7.428;2023-07-08T14:07:52;2.72;;;1.27;;
49688;SDS011;70518;51.400;7.428;2023-07-08T14:10:17;3.47;;;1.48;;
49688;SDS011;70518;51.400;7.428;2023-07-08T14:12:42;5.03;;;1.45;;
49688;SDS011;70518;51.400;7.428;2023-07-08T14:15:08;3.95;;;2.00;;
49688;SDS011;70518;51.400;7.428;2023-07-08T14:17:34;4.28;;;1.58;;
49688;SDS011;70518;51.400;7.428;2023-07-08T14:20:04;3.38;;;1.52;;
49688;SDS011;70518;51.400;7.428;2023-07-08T14:22:37;3.15;;;1.40;;
49688;SDS011;70518;51.400;7.428;2023-07-08T14:25:07;3.65;;;1.80;;
49688;SDS011;70518;51.400;7.428;2023-07-08T14:27:33;3.22;;;1.35;;
49688;SDS011;70518;51.400;7.428;2023-07-08T14:29:59;2.22;;;1.55;;
49688;SDS011;70518;51.400;7.428;2023-07-08T14:32:26;6.07;;;1.73;;
49688;SDS011;70518;51.400;7.428;2023-07-08T14:34:55;3.25;;;1.60;;
49688;SDS011;70518;51.400;7.428;2023-07-08T14:37:22;4.93;;;1.55;;
49688;SDS011;70518;51.400;7.428;2023-07-08T14:39:48;3.17;;;1.50;;
49688;SDS011;70518;51.400;7.428;2023-07-08T14:42:14;4.10;;;2.00;;
49688;SDS011;70518;51.400;7.428;2023-07-08T14:44:42;2.65;;;1.48;;
49688;SDS011;70518;51.400;7.428;2023-07-08T14:47:10;3.47;;;1.38;;
49688;SDS011;70518;51.400;7.428;2023-07-08T14:49:39;2.50;;;1.48;;
49688;SDS011;70518;51.400;7.428;2023-07-08T14:52:05;2.80;;;1.75;;
49688;SDS011;70518;51.400;7.428;2023-07-08T14:54:31;3.92;;;1.58;;
49688;SDS011;70518;51.400;7.428;2023-07-08T14:56:56;3.20;;;1.42;;
49688;SDS011;70518;51.400;7.428;2023-07-08T14:59:23;3.17;;;1.60;;
49688;SDS011;70518;51.400;7.428;2023-07-08T15:01:51;2.53;;;1.30;;
49688;SDS011;70518;51.400;7.428;2023-07-08T15:04:18;2.78;;;1.38;;
49688;SDS011;70518;51.400;7.428;2023-07-08T15:06:45;4.20;;;1.45;;
49688;SDS011;70518;51.400;7.428;2023-07-08T15:09:11;2.92;;;1.20;;
49688;SDS011;70518;51.400;7.428;2023-07-08T15:11:37;3.20;;;1.45;;
49688;SDS011;70518;51.400;7.428;2023-07-08T15:14:04;3.38;;;1.33;;
49688;SDS011;70518;51.400;7.428;2023-07-08T15:16:34;3.53;;;1.80;;
49688;SDS011;70518;51.400;7.428;2023-07-08T15:18:59;2.50;;;1.80;;
49688;SDS011;70518;51.400;7.428;2023-07-08T15:21:25;3.10;;;1.90;;
49688;SDS011;70518;51.400;7.428;2023-07-08T15:23:51;5.10;;;1.95;;
49688;SDS011;70518;51.400;7.428;2023-07-08T15:26:16;3.28;;;1.85;;
49688;SDS011;70518;51.400;7.428;2023-07-08T15:28:45;3.75;;;1.90;;
49688;SDS011;70518;51.400;7.428;2023-07-08T15:31:13;5.93;;;2.08;;
49688;SDS011;70518;51.400;7.428;2023-07-08T15:33:45;3.95;;;2.38;;
49688;SDS011;70518;51.400;7.428;2023-07-08T15:36:11;24.67;;;16.70;;
49688;SDS011;70518;51.400;7.428;2023-07-08T15:38:38;11.23;;;8.00;;
49688;SDS011;70518;51.400;7.428;2023-07-08T15:41:04;19.30;;;8.85;;
49688;SDS011;70518;51.400;7.428;2023-07-08T15:43:30;6.85;;;3.40;;